sensor_id;sensor_type;location;lat;lon;timestamp;P1;durP1;ratioP1;P2;durP2;ratioP2
179;SDS011;78;48.788;9.010;2023-05-24T00:02:23;24.77;;;6.53;;
179;SDS011;78;48.788;9.010;2023-05-24T00:04:50;21.83;;;6.90;;
179;SDS011;78;48.788;9.010;2023-05-24T00:07:17;22.90;;;6.90;;
179;SDS011;78;48.788;9.010;2023-05-24T00:09:43;30.87;;;7.00;;
179;SDS011;78;48.788;9.010;2023-05-24T00:12:09;25.13;;;6.60;;
179;SDS011;78;48.788;9.010;2023-05-24T00:14:35;24.57;;;7.47;;
179;SDS011;78;48.788;9.010;2023-05-24T00:17:01;36.60;;;7.20;;
179;SDS011;78;48.788;9.010;2023-05-24T00:19:27;23.93;;;6.57;;
179;SDS011;78;48.788;9.010;2023-05-24T00:21:53;20.60;;;6.37;;
179;SDS011;78;48.788;9.010;2023-05-24T00:24:19;27.73;;;6.90;;
179;SDS011;78;48.788;9.010;2023-05-24T00:26:45;29.80;;;7.13;;
179;SDS011;78;48.788;9.010;2023-05-24T00:29:12;22.70;;;6.50;;
179;SDS011;78;48.788;9.010;2023-05-24T00:31:38;23.63;;;6.83;;
179;SDS011;78;48.788;9.010;2023-05-24T00:34:04;23.53;;;7.00;;
179;SDS011;78;48.788;9.010;2023-05-24T00:36:30;23.33;;;6.83;;
179;SDS011;78;48.788;9.010;2023-05-24T00:38:57;21.17;;;6.43;;
179;SDS011;78;48.788;9.010;2023-05-24T00:41:22;25.37;;;7.10;;
179;SDS011;78;48.788;9.010;2023-05-24T00:43:48;22.40;;;6.77;;
179;SDS011;78;48.788;9.010;2023-05-24T00:46:26;21.83;;;6.50;;
179;SDS011;78;48.788;9.010;2023-05-24T00:48:53;25.23;;;6.50;;
179;SDS011;78;48.788;9.010;2023-05-24T00:51:19;25.37;;;6.87;;
179;SDS011;78;48.788;9.010;2023-05-24T00:53:46;24.30;;;7.50;;
179;SDS011;78;48.788;9.010;2023-05-24T00:56:12;25.47;;;6.53;;
179;SDS011;78;48.788;9.010;2023-05-24T00:58:38;26.23;;;7.00;;
179;SDS011;78;48.788;9.010;2023-05-24T01:01:05;26.87;;;7.60;;
179;SDS011;78;48.788;9.010;2023-05-24T01:03:31;25.30;;;7.10;;
179;SDS011;78;48.788;9.010;2023-05-24T01:05:58;26.73;;;7.30;;
179;SDS011;78;48.788;9.010;2023-05-24T01:10:58;23.17;;;6.80;;
179;SDS011;78;48.788;9.010;2023-05-24T01:13:26;29.60;;;6.57;;
179;SDS011;78;48.788;9.010;2023-05-24T01:16:04;23.93;;;7.00;;
179;SDS011;78;48.788;9.010;2023-05-24T01:18:33;24.47;;;6.83;;
179;SDS011;78;48.788;9.010;2023-05-24T01:23:40;26.70;;;7.50;;
179;SDS011;78;48.788;9.010;2023-05-24T01:28:35;24.70;;;6.90;;
179;SDS011;78;48.788;9.010;2023-05-24T01:31:03;25.00;;;7.37;;
179;SDS011;78;48.788;9.010;2023-05-24T01:33:29;25.87;;;6.73;;
179;SDS011;78;48.788;9.010;2023-05-24T01:35:55;27.80;;;7.30;;
179;SDS011;78;48.788;9.010;2023-05-24T01:38:21;24.00;;;6.77;;
179;SDS011;78;48.788;9.010;2023-05-24T01:40:49;24.53;;;7.20;;
179;SDS011;78;48.788;9.010;2023-05-24T01:43:21;27.57;;;6.80;;
179;SDS011;78;48.788;9.010;2023-05-24T01:45:52;24.47;;;6.70;;
179;SDS011;78;48.788;9.010;2023-05-24T01:50:58;26.30;;;7.40;;
179;SDS011;78;48.788;9.010;2023-05-24T01:53:25;31.07;;;7.63;;
179;SDS011;78;48.788;9.010;2023-05-24T01:55:55;27.50;;;7.90;;
179;SDS011;78;48.788;9.010;2023-05-24T01:58:22;29.20;;;7.10;;
179;SDS011;78;48.788;9.010;2023-05-24T02:00:48;27.73;;;7.00;;
179;SDS011;78;48.788;9.010;2023-05-24T02:03:14;24.10;;;7.03;;
179;SDS011;78;48.788;9.010;2023-05-24T02:05:41;25.10;;;7.23;;
179;SDS011;78;48.788;9.010;2023-05-24T02:08:08;26.60;;;7.10;;
179;SDS011;78;48.788;9.010;2023-05-24T02:10:35;29.10;;;7.90;;
179;SDS011;78;48.788;9.010;2023-05-24T02:13:03;31.30;;;7.60;;
179;SDS011;78;48.788;9.010;2023-05-24T02:15:29;24.57;;;7.53;;
179;SDS011;78;48.788;9.010;2023-05-24T02:17:55;28.90;;;7.50;;
179;SDS011;78;48.788;9.010;2023-05-24T02:20:21;26.00;;;7.43;;
179;SDS011;78;48.788;9.010;2023-05-24T02:22:48;25.43;;;7.00;;
179;SDS011;78;48.788;9.010;2023-05-24T02:25:14;26.90;;;8.10;;
179;SDS011;78;48.788;9.010;2023-05-24T02:27:40;29.90;;;7.87;;
179;SDS011;78;48.788;9.010;2023-05-24T02:30:11;30.03;;;7.63;;
179;SDS011;78;48.788;9.010;2023-05-24T02:32:37;29.40;;;8.03;;
179;SDS011;78;48.788;9.010;2023-05-24T02:35:04;22.77;;;6.97;;
179;SDS011;78;48.788;9.010;2023-05-24T02:37:31;31.10;;;7.83;;
179;SDS011;78;48.788;9.010;2023-05-24T02:39:57;31.27;;;8.47;;
179;SDS011;78;48.788;9.010;2023-05-24T02:42:23;32.30;;;8.33;;
179;SDS011;78;48.788;9.010;2023-05-24T02:44:49;30.60;;;8.10;;
179;SDS011;78;48.788;9.010;2023-05-24T02:47:16;29.40;;;8.40;;
179;SDS011;78;48.788;9.010;2023-05-24T02:49:42;28.20;;;7.57;;
179;SDS011;78;48.788;9.010;2023-05-24T02:52:08;30.93;;;7.70;;
179;SDS011;78;48.788;9.010;2023-05-24T02:54:34;25.97;;;7.60;;
179;SDS011;78;48.788;9.010;2023-05-24T02:57:01;26.20;;;7.60;;
179;SDS011;78;48.788;9.010;2023-05-24T02:59:27;35.37;;;8.07;;
179;SDS011;78;48.788;9.010;2023-05-24T03:01:52;26.67;;;7.67;;
179;SDS011;78;48.788;9.010;2023-05-24T03:04:18;30.83;;;8.43;;
179;SDS011;78;48.788;9.010;2023-05-24T03:06:44;32.07;;;8.27;;
179;SDS011;78;48.788;9.010;2023-05-24T03:09:11;29.87;;;8.00;;
179;SDS011;78;48.788;9.010;2023-05-24T03:11:37;29.67;;;7.70;;
179;SDS011;78;48.788;9.010;2023-05-24T03:14:03;26.47;;;7.80;;
179;SDS011;78;48.788;9.010;2023-05-24T03:16:30;27.03;;;7.60;;
179;SDS011;78;48.788;9.010;2023-05-24T03:18:56;28.57;;;7.90;;
179;SDS011;78;48.788;9.010;2023-05-24T03:21:23;27.80;;;7.50;;
179;SDS011;78;48.788;9.010;2023-05-24T03:23:50;39.30;;;7.63;;
179;SDS011;78;48.788;9.010;2023-05-24T03:26:16;26.27;;;7.87;;
179;SDS011;78;48.788;9.010;2023-05-24T03:28:42;26.10;;;8.10;;
179;SDS011;78;48.788;9.010;2023-05-24T03:31:09;29.70;;;7.70;;
179;SDS011;78;48.788;9.010;2023-05-24T03:33:36;26.57;;;7.70;;
179;SDS011;78;48.788;9.010;2023-05-24T03:36:02;30.67;;;8.30;;
179;SDS011;78;48.788;9.010;2023-05-24T03:38:28;30.43;;;8.20;;
179;SDS011;78;48.788;9.010;2023-05-24T03:40:55;26.00;;;7.83;;
179;SDS011;78;48.788;9.010;2023-05-24T03:43:21;27.00;;;8.33;;
179;SDS011;78;48.788;9.010;2023-05-24T03:45:47;27.50;;;8.00;;
179;SDS011;78;48.788;9.010;2023-05-24T03:48:13;29.30;;;7.70;;
179;SDS011;78;48.788;9.010;2023-05-24T03:50:39;26.97;;;7.93;;
179;SDS011;78;48.788;9.010;2023-05-24T03:53:05;28.93;;;8.37;;
179;SDS011;78;48.788;9.010;2023-05-24T03:55:31;30.10;;;8.77;;
179;SDS011;78;48.788;9.010;2023-05-24T03:57:57;27.27;;;8.17;;
179;SDS011;78;48.788;9.010;2023-05-24T04:00:23;28.90;;;8.13;;
179;SDS011;78;48.788;9.010;2023-05-24T04:02:49;28.67;;;8.50;;
179;SDS011;78;48.788;9.010;2023-05-24T04:05:15;28.03;;;7.90;;
179;SDS011;78;48.788;9.010;2023-05-24T04:07:41;35.50;;;8.57;;
179;SDS011;78;48.788;9.010;2023-05-24T04:10:09;26.27;;;7.77;;
179;SDS011;78;48.788;9.010;2023-05-24T04:12:35;28.17;;;7.20;;
179;SDS011;78;48.788;9.010;2023-05-24T04:15:01;29.07;;;8.10;;
179;SDS011;78;48.788;9.010;2023-05-24T04:17:27;25.47;;;7.70;;
179;SDS011;78;48.788;9.010;2023-05-24T04:19:56;27.70;;;8.10;;
179;SDS011;78;48.788;9.010;2023-05-24T04:22:22;30.90;;;7.70;;
179;SDS011;78;48.788;9.010;2023-05-24T04:24:48;28.97;;;8.50;;
179;SDS011;78;48.788;9.010;2023-05-24T04:27:14;25.70;;;7.47;;
179;SDS011;78;48.788;9.010;2023-05-24T04:29:42;27.13;;;8.10;;
179;SDS011;78;48.788;9.010;2023-05-24T04:32:09;27.30;;;8.30;;
179;SDS011;78;48.788;9.010;2023-05-24T04:34:38;29.60;;;8.30;;
179;SDS011;78;48.788;9.010;2023-05-24T04:37:06;32.87;;;8.43;;
179;SDS011;78;48.788;9.010;2023-05-24T04:39:32;26.17;;;7.77;;
179;SDS011;78;48.788;9.010;2023-05-24T04:41:58;36.70;;;8.40;;
179;SDS011;78;48.788;9.010;2023-05-24T04:44:25;28.53;;;8.30;;
179;SDS011;78;48.788;9.010;2023-05-24T04:46:51;27.40;;;8.10;;
179;SDS011;78;48.788;9.010;2023-05-24T04:49:17;29.57;;;7.83;;
179;SDS011;78;48.788;9.010;2023-05-24T04:51:43;34.90;;;7.60;;
179;SDS011;78;48.788;9.010;2023-05-24T04:54:09;28.13;;;8.07;;
179;SDS011;78;48.788;9.010;2023-05-24T04:56:36;24.03;;;7.83;;
179;SDS011;78;48.788;9.010;2023-05-24T04:59:06;29.23;;;7.87;;
179;SDS011;78;48.788;9.010;2023-05-24T05:01:33;32.70;;;9.00;;
179;SDS011;78;48.788;9.010;2023-05-24T05:03:59;32.40;;;8.40;;
179;SDS011;78;48.788;9.010;2023-05-24T05:06:28;31.33;;;7.67;;
179;SDS011;78;48.788;9.010;2023-05-24T05:08:54;26.77;;;7.90;;
179;SDS011;78;48.788;9.010;2023-05-24T05:11:20;30.80;;;8.80;;
179;SDS011;78;48.788;9.010;2023-05-24T05:13:46;30.30;;;8.90;;
179;SDS011;78;48.788;9.010;2023-05-24T05:16:12;28.70;;;8.23;;
179;SDS011;78;48.788;9.010;2023-05-24T05:18:38;28.67;;;8.03;;
179;SDS011;78;48.788;9.010;2023-05-24T05:21:03;25.57;;;7.80;;
179;SDS011;78;48.788;9.010;2023-05-24T05:23:30;32.87;;;7.53;;
179;SDS011;78;48.788;9.010;2023-05-24T05:25:56;27.40;;;7.53;;
179;SDS011;78;48.788;9.010;2023-05-24T05:28:22;30.90;;;8.00;;
179;SDS011;78;48.788;9.010;2023-05-24T05:30:48;31.20;;;7.70;;
179;SDS011;78;48.788;9.010;2023-05-24T05:33:14;33.30;;;7.70;;
179;SDS011;78;48.788;9.010;2023-05-24T05:35:40;33.77;;;8.00;;
179;SDS011;78;48.788;9.010;2023-05-24T05:38:06;28.00;;;8.00;;
179;SDS011;78;48.788;9.010;2023-05-24T05:40:32;34.17;;;7.87;;
179;SDS011;78;48.788;9.010;2023-05-24T05:42:58;24.53;;;7.10;;
179;SDS011;78;48.788;9.010;2023-05-24T05:45:24;31.23;;;7.50;;
179;SDS011;78;48.788;9.010;2023-05-24T05:47:50;30.27;;;7.50;;
179;SDS011;78;48.788;9.010;2023-05-24T05:50:16;26.23;;;7.00;;
179;SDS011;78;48.788;9.010;2023-05-24T05:52:42;37.60;;;8.23;;
179;SDS011;78;48.788;9.010;2023-05-24T05:55:08;27.20;;;6.60;;
179;SDS011;78;48.788;9.010;2023-05-24T05:57:36;26.70;;;7.07;;
179;SDS011;78;48.788;9.010;2023-05-24T06:00:02;32.97;;;7.50;;
179;SDS011;78;48.788;9.010;2023-05-24T06:02:28;34.80;;;7.20;;
179;SDS011;78;48.788;9.010;2023-05-24T06:04:54;30.60;;;7.70;;
179;SDS011;78;48.788;9.010;2023-05-24T06:07:20;28.90;;;7.57;;
179;SDS011;78;48.788;9.010;2023-05-24T06:09:46;30.97;;;7.70;;
179;SDS011;78;48.788;9.010;2023-05-24T06:12:12;29.77;;;8.10;;
179;SDS011;78;48.788;9.010;2023-05-24T06:14:37;26.37;;;7.13;;
179;SDS011;78;48.788;9.010;2023-05-24T06:17:04;32.17;;;7.20;;
179;SDS011;78;48.788;9.010;2023-05-24T06:19:30;28.00;;;7.40;;
179;SDS011;78;48.788;9.010;2023-05-24T06:21:57;31.37;;;7.87;;
179;SDS011;78;48.788;9.010;2023-05-24T06:24:23;29.73;;;7.40;;
179;SDS011;78;48.788;9.010;2023-05-24T06:26:49;28.20;;;6.93;;
179;SDS011;78;48.788;9.010;2023-05-24T06:29:16;31.20;;;7.27;;
179;SDS011;78;48.788;9.010;2023-05-24T06:31:45;30.80;;;7.00;;
179;SDS011;78;48.788;9.010;2023-05-24T06:34:12;28.30;;;7.30;;
179;SDS011;78;48.788;9.010;2023-05-24T06:36:40;27.83;;;7.53;;
179;SDS011;78;48.788;9.010;2023-05-24T06:39:09;31.33;;;7.90;;
179;SDS011;78;48.788;9.010;2023-05-24T06:41:35;31.10;;;8.03;;
179;SDS011;78;48.788;9.010;2023-05-24T06:44:02;29.53;;;7.60;;
179;SDS011;78;48.788;9.010;2023-05-24T06:46:28;29.73;;;7.03;;
179;SDS011;78;48.788;9.010;2023-05-24T06:48:55;36.57;;;7.93;;
179;SDS011;78;48.788;9.010;2023-05-24T06:51:21;28.20;;;7.40;;
179;SDS011;78;48.788;9.010;2023-05-24T06:53:47;34.90;;;8.10;;
179;SDS011;78;48.788;9.010;2023-05-24T06:56:13;28.43;;;7.20;;
179;SDS011;78;48.788;9.010;2023-05-24T06:58:39;30.23;;;7.20;;
179;SDS011;78;48.788;9.010;2023-05-24T07:01:05;26.00;;;7.53;;
179;SDS011;78;48.788;9.010;2023-05-24T07:03:31;28.43;;;7.63;;
179;SDS011;78;48.788;9.010;2023-05-24T07:05:57;28.40;;;7.60;;
179;SDS011;78;48.788;9.010;2023-05-24T07:08:24;27.37;;;7.00;;
179;SDS011;78;48.788;9.010;2023-05-24T07:10:50;30.43;;;7.93;;
179;SDS011;78;48.788;9.010;2023-05-24T07:13:17;31.53;;;7.07;;
179;SDS011;78;48.788;9.010;2023-05-24T07:15:44;30.30;;;8.07;;
179;SDS011;78;48.788;9.010;2023-05-24T07:18:11;32.80;;;7.90;;
179;SDS011;78;48.788;9.010;2023-05-24T07:20:37;30.87;;;7.20;;
179;SDS011;78;48.788;9.010;2023-05-24T07:23:03;26.50;;;7.20;;
179;SDS011;78;48.788;9.010;2023-05-24T07:25:30;36.83;;;8.47;;
179;SDS011;78;48.788;9.010;2023-05-24T07:27:57;28.30;;;8.03;;
179;SDS011;78;48.788;9.010;2023-05-24T07:30:23;33.50;;;7.57;;
179;SDS011;78;48.788;9.010;2023-05-24T07:32:49;28.63;;;7.00;;
179;SDS011;78;48.788;9.010;2023-05-24T07:35:16;30.30;;;7.50;;
179;SDS011;78;48.788;9.010;2023-05-24T07:37:43;23.73;;;6.70;;
179;SDS011;78;48.788;9.010;2023-05-24T07:40:09;28.87;;;7.47;;
179;SDS011;78;48.788;9.010;2023-05-24T07:42:36;27.70;;;7.10;;
179;SDS011;78;48.788;9.010;2023-05-24T07:45:02;44.73;;;7.40;;
179;SDS011;78;48.788;9.010;2023-05-24T07:47:29;33.37;;;7.20;;
179;SDS011;78;48.788;9.010;2023-05-24T07:49:55;31.13;;;7.17;;
179;SDS011;78;48.788;9.010;2023-05-24T07:52:21;34.10;;;8.13;;
179;SDS011;78;48.788;9.010;2023-05-24T07:54:48;28.90;;;7.03;;
179;SDS011;78;48.788;9.010;2023-05-24T07:57:14;30.47;;;7.53;;
179;SDS011;78;48.788;9.010;2023-05-24T07:59:40;30.20;;;7.33;;
179;SDS011;78;48.788;9.010;2023-05-24T08:02:06;27.83;;;7.57;;
179;SDS011;78;48.788;9.010;2023-05-24T08:04:35;29.10;;;7.30;;
179;SDS011;78;48.788;9.010;2023-05-24T08:07:01;32.30;;;7.30;;
179;SDS011;78;48.788;9.010;2023-05-24T08:09:29;33.67;;;8.10;;
179;SDS011;78;48.788;9.010;2023-05-24T08:11:57;31.60;;;7.30;;
179;SDS011;78;48.788;9.010;2023-05-24T08:14:23;31.33;;;8.37;;
179;SDS011;78;48.788;9.010;2023-05-24T08:16:50;25.13;;;6.60;;
179;SDS011;78;48.788;9.010;2023-05-24T08:19:16;29.63;;;7.33;;
179;SDS011;78;48.788;9.010;2023-05-24T08:21:43;35.17;;;8.60;;
179;SDS011;78;48.788;9.010;2023-05-24T08:24:09;29.17;;;6.43;;
179;SDS011;78;48.788;9.010;2023-05-24T08:26:36;29.50;;;7.47;;
179;SDS011;78;48.788;9.010;2023-05-24T08:29:02;29.47;;;7.23;;
179;SDS011;78;48.788;9.010;2023-05-24T08:31:29;30.17;;;8.00;;
179;SDS011;78;48.788;9.010;2023-05-24T08:33:57;33.00;;;7.40;;
179;SDS011;78;48.788;9.010;2023-05-24T08:36:23;30.50;;;7.77;;
179;SDS011;78;48.788;9.010;2023-05-24T08:38:50;26.67;;;7.30;;
179;SDS011;78;48.788;9.010;2023-05-24T08:41:17;31.10;;;6.57;;
179;SDS011;78;48.788;9.010;2023-05-24T08:43:43;29.33;;;6.50;;
179;SDS011;78;48.788;9.010;2023-05-24T08:46:11;28.13;;;7.30;;
179;SDS011;78;48.788;9.010;2023-05-24T08:48:47;30.97;;;7.17;;
179;SDS011;78;48.788;9.010;2023-05-24T08:51:14;26.60;;;7.20;;
179;SDS011;78;48.788;9.010;2023-05-24T08:53:40;31.23;;;7.90;;
179;SDS011;78;48.788;9.010;2023-05-24T08:56:12;27.60;;;6.87;;
179;SDS011;78;48.788;9.010;2023-05-24T08:58:41;26.73;;;6.87;;
179;SDS011;78;48.788;9.010;2023-05-24T09:01:08;32.33;;;7.70;;
179;SDS011;78;48.788;9.010;2023-05-24T09:03:35;29.93;;;7.40;;
179;SDS011;78;48.788;9.010;2023-05-24T09:06:01;31.17;;;7.20;;
179;SDS011;78;48.788;9.010;2023-05-24T09:08:28;29.97;;;7.53;;
179;SDS011;78;48.788;9.010;2023-05-24T09:10:57;36.07;;;8.20;;
179;SDS011;78;48.788;9.010;2023-05-24T09:13:23;28.80;;;7.40;;
179;SDS011;78;48.788;9.010;2023-05-24T09:15:49;33.00;;;7.73;;
179;SDS011;78;48.788;9.010;2023-05-24T09:18:15;31.27;;;7.30;;
179;SDS011;78;48.788;9.010;2023-05-24T09:20:42;27.50;;;7.30;;
179;SDS011;78;48.788;9.010;2023-05-24T09:23:08;29.90;;;7.63;;
179;SDS011;78;48.788;9.010;2023-05-24T09:25:34;32.50;;;8.10;;
179;SDS011;78;48.788;9.010;2023-05-24T09:28:04;31.87;;;7.20;;
179;SDS011;78;48.788;9.010;2023-05-24T09:30:32;34.40;;;8.50;;
179;SDS011;78;48.788;9.010;2023-05-24T09:32:58;29.10;;;7.07;;
179;SDS011;78;48.788;9.010;2023-05-24T09:35:25;29.30;;;7.70;;
179;SDS011;78;48.788;9.010;2023-05-24T09:37:55;32.07;;;8.20;;
179;SDS011;78;48.788;9.010;2023-05-24T09:40:22;27.87;;;7.20;;
179;SDS011;78;48.788;9.010;2023-05-24T09:42:49;27.47;;;7.47;;
179;SDS011;78;48.788;9.010;2023-05-24T09:45:27;37.03;;;8.73;;
179;SDS011;78;48.788;9.010;2023-05-24T09:47:53;33.97;;;8.47;;
179;SDS011;78;48.788;9.010;2023-05-24T09:50:19;36.03;;;7.47;;
179;SDS011;78;48.788;9.010;2023-05-24T09:52:46;31.30;;;7.07;;
179;SDS011;78;48.788;9.010;2023-05-24T09:55:12;33.40;;;8.27;;
179;SDS011;78;48.788;9.010;2023-05-24T09:57:39;32.87;;;8.10;;
179;SDS011;78;48.788;9.010;2023-05-24T10:00:08;28.97;;;7.93;;
179;SDS011;78;48.788;9.010;2023-05-24T10:02:41;42.13;;;9.03;;
179;SDS011;78;48.788;9.010;2023-05-24T10:05:11;29.67;;;8.17;;
179;SDS011;78;48.788;9.010;2023-05-24T10:07:38;30.33;;;7.67;;
179;SDS011;78;48.788;9.010;2023-05-24T10:10:04;40.97;;;8.80;;
179;SDS011;78;48.788;9.010;2023-05-24T10:12:32;29.60;;;8.00;;
179;SDS011;78;48.788;9.010;2023-05-24T10:15:07;29.83;;;8.00;;
179;SDS011;78;48.788;9.010;2023-05-24T10:17:34;31.20;;;8.23;;
179;SDS011;78;48.788;9.010;2023-05-24T10:20:00;28.70;;;7.83;;
179;SDS011;78;48.788;9.010;2023-05-24T10:22:26;33.47;;;8.27;;
179;SDS011;78;48.788;9.010;2023-05-24T10:24:52;28.20;;;7.50;;
179;SDS011;78;48.788;9.010;2023-05-24T10:27:23;47.87;;;8.80;;
179;SDS011;78;48.788;9.010;2023-05-24T10:32:25;32.07;;;8.20;;
179;SDS011;78;48.788;9.010;2023-05-24T10:34:56;26.70;;;7.50;;
179;SDS011;78;48.788;9.010;2023-05-24T10:37:23;30.57;;;7.70;;
179;SDS011;78;48.788;9.010;2023-05-24T10:39:50;34.77;;;7.83;;
179;SDS011;78;48.788;9.010;2023-05-24T10:42:16;25.70;;;7.10;;
179;SDS011;78;48.788;9.010;2023-05-24T10:44:42;30.50;;;7.30;;
179;SDS011;78;48.788;9.010;2023-05-24T10:49:35;25.50;;;7.70;;
179;SDS011;78;48.788;9.010;2023-05-24T10:52:01;32.50;;;7.97;;
179;SDS011;78;48.788;9.010;2023-05-24T10:54:32;27.83;;;7.50;;
179;SDS011;78;48.788;9.010;2023-05-24T10:56:59;31.57;;;7.70;;
179;SDS011;78;48.788;9.010;2023-05-24T10:59:35;27.23;;;6.07;;
179;SDS011;78;48.788;9.010;2023-05-24T11:02:02;29.33;;;7.30;;
179;SDS011;78;48.788;9.010;2023-05-24T11:04:32;24.63;;;6.93;;
179;SDS011;78;48.788;9.010;2023-05-24T11:07:01;30.97;;;7.10;;
179;SDS011;78;48.788;9.010;2023-05-24T11:09:28;32.73;;;6.80;;
179;SDS011;78;48.788;9.010;2023-05-24T11:11:55;28.37;;;7.13;;
179;SDS011;78;48.788;9.010;2023-05-24T11:14:22;27.73;;;7.20;;
179;SDS011;78;48.788;9.010;2023-05-24T11:16:49;24.43;;;6.80;;
179;SDS011;78;48.788;9.010;2023-05-24T11:19:20;24.40;;;6.20;;
179;SDS011;78;48.788;9.010;2023-05-24T11:21:47;27.00;;;6.13;;
179;SDS011;78;48.788;9.010;2023-05-24T11:24:14;26.30;;;5.90;;
179;SDS011;78;48.788;9.010;2023-05-24T11:26:41;23.50;;;5.67;;
179;SDS011;78;48.788;9.010;2023-05-24T11:29:08;23.50;;;5.40;;
179;SDS011;78;48.788;9.010;2023-05-24T11:31:34;26.23;;;5.20;;
179;SDS011;78;48.788;9.010;2023-05-24T11:34:03;22.83;;;5.30;;
179;SDS011;78;48.788;9.010;2023-05-24T11:36:29;22.33;;;4.70;;
179;SDS011;78;48.788;9.010;2023-05-24T11:38:57;24.93;;;5.10;;
179;SDS011;78;48.788;9.010;2023-05-24T11:41:23;24.33;;;5.10;;
179;SDS011;78;48.788;9.010;2023-05-24T11:43:49;26.27;;;4.67;;
179;SDS011;78;48.788;9.010;2023-05-24T11:46:15;21.43;;;4.63;;
179;SDS011;78;48.788;9.010;2023-05-24T11:48:52;22.43;;;5.03;;
179;SDS011;78;48.788;9.010;2023-05-24T11:51:23;19.77;;;4.43;;
179;SDS011;78;48.788;9.010;2023-05-24T11:53:49;21.00;;;4.37;;
179;SDS011;78;48.788;9.010;2023-05-24T11:56:15;21.73;;;4.30;;
179;SDS011;78;48.788;9.010;2023-05-24T11:58:48;20.30;;;4.17;;
179;SDS011;78;48.788;9.010;2023-05-24T12:01:50;21.90;;;4.03;;
179;SDS011;78;48.788;9.010;2023-05-24T12:04:07;23.00;;;4.73;;
179;SDS011;78;48.788;9.010;2023-05-24T12:06:52;24.47;;;5.00;;
179;SDS011;78;48.788;9.010;2023-05-24T12:09:19;18.50;;;4.30;;
179;SDS011;78;48.788;9.010;2023-05-24T12:11:46;25.43;;;4.40;;
179;SDS011;78;48.788;9.010;2023-05-24T12:14:14;22.90;;;5.07;;
179;SDS011;78;48.788;9.010;2023-05-24T12:16:42;22.50;;;4.57;;
179;SDS011;78;48.788;9.010;2023-05-24T12:19:12;22.47;;;4.30;;
179;SDS011;78;48.788;9.010;2023-05-24T12:21:41;22.63;;;4.50;;
179;SDS011;78;48.788;9.010;2023-05-24T12:24:11;23.43;;;4.63;;
179;SDS011;78;48.788;9.010;2023-05-24T12:26:57;18.43;;;3.90;;
179;SDS011;78;48.788;9.010;2023-05-24T12:29:25;22.83;;;4.70;;
179;SDS011;78;48.788;9.010;2023-05-24T12:31:52;21.53;;;4.20;;
179;SDS011;78;48.788;9.010;2023-05-24T12:34:18;22.13;;;3.87;;
179;SDS011;78;48.788;9.010;2023-05-24T12:36:48;27.07;;;4.40;;
179;SDS011;78;48.788;9.010;2023-05-24T12:39:21;22.93;;;4.37;;
179;SDS011;78;48.788;9.010;2023-05-24T12:41:52;23.00;;;4.40;;
179;SDS011;78;48.788;9.010;2023-05-24T12:44:28;22.37;;;4.00;;
179;SDS011;78;48.788;9.010;2023-05-24T12:46:55;21.13;;;4.83;;
179;SDS011;78;48.788;9.010;2023-05-24T12:49:22;23.40;;;4.50;;
179;SDS011;78;48.788;9.010;2023-05-24T12:51:48;23.00;;;4.30;;
179;SDS011;78;48.788;9.010;2023-05-24T12:54:17;26.43;;;5.63;;
179;SDS011;78;48.788;9.010;2023-05-24T12:56:44;22.17;;;4.43;;
179;SDS011;78;48.788;9.010;2023-05-24T12:59:10;21.97;;;4.30;;
179;SDS011;78;48.788;9.010;2023-05-24T13:01:36;23.70;;;4.40;;
179;SDS011;78;48.788;9.010;2023-05-24T13:04:03;20.07;;;4.23;;
179;SDS011;78;48.788;9.010;2023-05-24T13:06:29;21.30;;;4.27;;
179;SDS011;78;48.788;9.010;2023-05-24T13:08:55;20.93;;;4.10;;
179;SDS011;78;48.788;9.010;2023-05-24T13:11:22;21.47;;;4.00;;
179;SDS011;78;48.788;9.010;2023-05-24T13:13:49;20.80;;;4.40;;
179;SDS011;78;48.788;9.010;2023-05-24T13:16:15;19.50;;;4.07;;
179;SDS011;78;48.788;9.010;2023-05-24T13:18:41;24.67;;;4.27;;
179;SDS011;78;48.788;9.010;2023-05-24T13:21:07;26.00;;;4.70;;
179;SDS011;78;48.788;9.010;2023-05-24T13:23:33;19.10;;;4.07;;
179;SDS011;78;48.788;9.010;2023-05-24T13:26:03;20.43;;;4.20;;
179;SDS011;78;48.788;9.010;2023-05-24T13:28:30;19.57;;;3.80;;
179;SDS011;78;48.788;9.010;2023-05-24T13:30:56;19.47;;;4.10;;
179;SDS011;78;48.788;9.010;2023-05-24T13:33:23;20.60;;;4.30;;
179;SDS011;78;48.788;9.010;2023-05-24T13:35:50;20.27;;;4.03;;
179;SDS011;78;48.788;9.010;2023-05-24T13:38:17;21.60;;;4.87;;
179;SDS011;78;48.788;9.010;2023-05-24T13:40:43;22.90;;;3.80;;
179;SDS011;78;48.788;9.010;2023-05-24T13:43:09;22.97;;;4.10;;
179;SDS011;78;48.788;9.010;2023-05-24T13:45:36;20.57;;;3.90;;
179;SDS011;78;48.788;9.010;2023-05-24T13:48:03;19.60;;;3.80;;
179;SDS011;78;48.788;9.010;2023-05-24T13:50:30;18.20;;;3.63;;
179;SDS011;78;48.788;9.010;2023-05-24T13:52:57;22.67;;;4.20;;
179;SDS011;78;48.788;9.010;2023-05-24T13:55:24;24.73;;;3.73;;
179;SDS011;78;48.788;9.010;2023-05-24T13:57:52;17.33;;;3.53;;
179;SDS011;78;48.788;9.010;2023-05-24T14:00:19;20.57;;;4.53;;
179;SDS011;78;48.788;9.010;2023-05-24T14:02:46;19.67;;;3.83;;
179;SDS011;78;48.788;9.010;2023-05-24T14:05:12;16.33;;;3.30;;
179;SDS011;78;48.788;9.010;2023-05-24T14:07:38;19.53;;;3.97;;
179;SDS011;78;48.788;9.010;2023-05-24T14:10:04;25.70;;;4.07;;
179;SDS011;78;48.788;9.010;2023-05-24T14:12:30;20.20;;;3.67;;
179;SDS011;78;48.788;9.010;2023-05-24T14:14:56;19.93;;;3.60;;
179;SDS011;78;48.788;9.010;2023-05-24T14:17:22;21.50;;;3.90;;
179;SDS011;78;48.788;9.010;2023-05-24T14:19:48;27.23;;;4.20;;
179;SDS011;78;48.788;9.010;2023-05-24T14:22:14;20.00;;;3.90;;
179;SDS011;78;48.788;9.010;2023-05-24T14:24:41;20.80;;;3.83;;
179;SDS011;78;48.788;9.010;2023-05-24T14:27:07;21.40;;;3.60;;
179;SDS011;78;48.788;9.010;2023-05-24T14:29:34;26.60;;;3.90;;
179;SDS011;78;48.788;9.010;2023-05-24T14:32:00;23.37;;;4.50;;
179;SDS011;78;48.788;9.010;2023-05-24T14:34:26;23.70;;;4.33;;
179;SDS011;78;48.788;9.010;2023-05-24T14:36:53;20.07;;;4.30;;
179;SDS011;78;48.788;9.010;2023-05-24T14:39:19;19.80;;;3.83;;
179;SDS011;78;48.788;9.010;2023-05-24T14:41:45;20.53;;;3.50;;
179;SDS011;78;48.788;9.010;2023-05-24T14:44:11;19.37;;;3.90;;
179;SDS011;78;48.788;9.010;2023-05-24T14:46:38;21.77;;;4.03;;
179;SDS011;78;48.788;9.010;2023-05-24T14:49:05;23.73;;;4.37;;
179;SDS011;78;48.788;9.010;2023-05-24T14:51:31;23.73;;;5.17;;
179;SDS011;78;48.788;9.010;2023-05-24T14:53:57;23.77;;;4.87;;
179;SDS011;78;48.788;9.010;2023-05-24T14:56:23;20.90;;;4.27;;
179;SDS011;78;48.788;9.010;2023-05-24T14:58:49;21.20;;;4.50;;
179;SDS011;78;48.788;9.010;2023-05-24T15:01:15;19.23;;;3.87;;
179;SDS011;78;48.788;9.010;2023-05-24T15:03:41;21.77;;;4.30;;
179;SDS011;78;48.788;9.010;2023-05-24T15:06:07;22.80;;;4.00;;
179;SDS011;78;48.788;9.010;2023-05-24T15:08:33;19.80;;;4.37;;
179;SDS011;78;48.788;9.010;2023-05-24T15:10:59;21.67;;;4.27;;
179;SDS011;78;48.788;9.010;2023-05-24T15:13:25;21.93;;;3.60;;
179;SDS011;78;48.788;9.010;2023-05-24T15:15:51;22.13;;;3.60;;
179;SDS011;78;48.788;9.010;2023-05-24T15:18:18;19.70;;;3.60;;
179;SDS011;78;48.788;9.010;2023-05-24T15:20:44;20.80;;;3.40;;
179;SDS011;78;48.788;9.010;2023-05-24T15:23:10;17.93;;;3.53;;
179;SDS011;78;48.788;9.010;2023-05-24T15:25:37;21.23;;;3.70;;
179;SDS011;78;48.788;9.010;2023-05-24T15:28:03;21.27;;;3.47;;
179;SDS011;78;48.788;9.010;2023-05-24T15:30:29;19.83;;;3.93;;
179;SDS011;78;48.788;9.010;2023-05-24T15:32:55;26.70;;;4.07;;
179;SDS011;78;48.788;9.010;2023-05-24T15:35:21;17.93;;;3.40;;
179;SDS011;78;48.788;9.010;2023-05-24T15:37:47;21.67;;;3.93;;
179;SDS011;78;48.788;9.010;2023-05-24T15:40:13;18.20;;;3.60;;
179;SDS011;78;48.788;9.010;2023-05-24T15:42:40;18.80;;;3.87;;
179;SDS011;78;48.788;9.010;2023-05-24T15:45:06;17.57;;;3.10;;
179;SDS011;78;48.788;9.010;2023-05-24T15:47:32;18.33;;;3.33;;
179;SDS011;78;48.788;9.010;2023-05-24T15:50:03;18.03;;;3.47;;
179;SDS011;78;48.788;9.010;2023-05-24T15:52:30;19.77;;;3.80;;
179;SDS011;78;48.788;9.010;2023-05-24T15:54:56;19.50;;;3.70;;
179;SDS011;78;48.788;9.010;2023-05-24T15:57:22;17.93;;;3.60;;
179;SDS011;78;48.788;9.010;2023-05-24T15:59:48;19.00;;;3.80;;